Time;durP1;ratioP1;P1;durP2;ratioP2;P2;SDS_P1;SDS_P2;PMS_P1;PMS_P2;Temp;Humidity;BMP_temperature;BMP_pressure;BME280_temperature;BME280_humidity;BME280_pressure;Samples;Min_cycle;Max_cycle;Signal;HPM_P1;HPM_P2
2023/01/21 00:00:54;;;;;;;73.63;34.00;;;;;;;-3.14;100.00;102489.88;4937068;29;20032;-85
2023/01/21 00:03:20;;;;;;;73.50;35.13;;;;;;;-3.67;100.00;102418.91;4937077;29;20392;-86
2023/01/21 00:05:45;;;;;;;73.10;34.00;;;;;;;-3.59;100.00;102440.97;4936032;29;20020;-86
2023/01/21 00:08:11;;;;;;;74.50;35.75;;;;;;;-2.85;100.00;102546.91;4936855;29;20079;-86
2023/01/21 00:10:36;;;;;;;76.32;34.65;;;;;;;-3.42;100.00;102456.47;4937731;29;20027;-87
2023/01/21 00:13:02;;;;;;;75.50;34.92;;;;;;;-2.82;100.00;102572.25;4937100;29;20476;-87
2023/01/21 00:15:27;;;;;;;72.25;35.50;;;;;;;-2.65;100.00;102610.53;4936865;29;20027;-88
2023/01/21 00:17:53;;;;;;;70.95;34.17;;;;;;;-4.03;100.00;102379.47;4935510;29;20067;-86
2023/01/21 00:20:18;;;;;;;74.97;32.08;;;;;;;-3.82;100.00;102427.88;4936775;29;20059;-88
2023/01/21 00:22:44;;;;;;;74.85;35.75;;;;;;;-3.64;100.00;102452.63;4935358;29;20092;-87
2023/01/21 00:25:15;;;;;;;74.10;35.58;;;;;;;-3.71;100.00;102443.22;4936786;29;20111;-87
2023/01/21 00:27:40;;;;;;;76.82;36.88;;;;;;;-2.97;100.00;102575.28;4935377;29;20440;-87
2023/01/21 00:30:09;;;;;;;75.50;35.92;;;;;;;-2.93;100.00;102587.19;4936629;29;20027;-87
2023/01/21 00:32:35;;;;;;;79.97;37.78;;;;;;;-3.68;100.00;102455.91;4936723;29;20427;-86
2023/01/21 00:35:00;;;;;;;79.38;37.15;;;;;;;-4.13;100.00;102385.09;4936625;29;20114;-87
2023/01/21 00:37:35;;;;;;;80.47;37.00;;;;;;;-2.80;100.00;102618.63;4936234;29;20395;-87
2023/01/21 00:40:00;;;;;;;76.40;36.00;;;;;;;-3.65;100.00;102476.16;4936837;29;20376;-86
2023/01/21 00:42:38;;;;;;;79.72;37.30;;;;;;;-2.84;100.00;102614.34;4936227;29;20027;-86
2023/01/21 00:45:03;;;;;;;79.65;37.95;;;;;;;-2.99;100.00;102593.78;4936456;29;20511;-86
2023/01/21 00:47:29;;;;;;;72.53;35.55;;;;;;;-3.43;100.00;102535.59;4936557;29;20028;-87
2023/01/21 00:49:54;;;;;;;77.90;36.13;;;;;;;-3.64;100.00;102500.59;4936289;29;20027;-89
2023/01/21 00:52:20;;;;;;;82.93;38.83;;;;;;;-3.34;100.00;102565.22;4941420;23;20148;-89
2023/01/21 00:54:45;;;;;;;86.22;39.65;;;;;;;-3.14;100.00;102604.44;4936130;29;20042;-89
2023/01/21 00:57:12;;;;;;;85.40;40.30;;;;;;;-2.95;100.00;102636.00;4934644;29;20050;-87
2023/01/21 00:59:44;;;;;;;82.63;39.22;;;;;;;-3.12;100.00;102617.09;4936432;29;20392;-88
2023/01/21 01:02:09;;;;;;;;;;;;;;;-2.99;100.00;102650.25;4936765;29;20477;-89
2023/01/21 01:04:35;;;;;;;82.22;38.78;;;;;;;-3.67;100.00;102545.97;4936191;29;19915;-87
2023/01/21 01:07:00;;;;;;;91.57;42.20;;;;;;;-3.28;100.00;102603.25;4936169;29;20035;-84
2023/01/21 01:09:28;;;;;;;90.38;42.80;;;;;;;-3.39;100.00;102589.53;4935930;29;20455;-88
2023/01/21 01:11:53;;;;;;;91.63;43.85;;;;;;;-2.96;100.00;102667.13;4936176;29;20032;-87
2023/01/21 01:14:19;;;;;;;92.43;43.13;;;;;;;-3.32;100.00;102611.59;4935146;29;20031;-87
2023/01/21 01:16:44;;;;;;;93.50;42.83;;;;;;;-3.29;100.00;102627.66;4934898;29;20395;-88
2023/01/21 01:19:10;;;;;;;96.70;45.50;;;;;;;-3.32;100.00;102637.72;4936042;29;20475;-88
2023/01/21 01:24:48;;;;;;;95.15;42.95;;;;;;;-4.48;100.00;102449.84;4935719;29;20558;-88
2023/01/21 01:27:13;;;;;;;90.60;42.95;;;;;;;-3.06;100.00;102706.50;4936040;29;20038;-86
2023/01/21 01:29:38;;;;;;;101.25;44.30;;;;;;;-3.73;100.00;102596.34;4935276;29;20023;-89
2023/01/21 01:32:24;;;;;;;101.72;48.03;;;;;;;-4.71;100.00;102434.16;4935771;29;20039;-86
2023/01/21 01:35:04;;;;;;;101.78;44.28;;;;;;;-3.10;100.00;102717.38;4935930;29;20042;-88
2023/01/21 01:37:35;;;;;;;99.93;46.42;;;;;;;-4.15;100.00;102536.41;4935648;29;20026;-88
2023/01/21 01:47:07;;;;;;;109.75;49.05;;;;;;;-3.79;100.00;102622.28;4935701;29;20042;-86
2023/01/21 01:57:00;;;;;;;115.20;51.63;;;;;;;-4.21;100.00;102563.16;4935609;29;20078;-89
2023/01/21 01:59:30;;;;;;;120.22;51.33;;;;;;;-4.58;100.00;102504.22;4935468;29;20036;-87
2023/01/21 02:02:09;;;;;;;113.38;50.15;;;;;;;-3.21;100.00;102742.41;4935427;29;20106;-88
2023/01/21 02:05:18;;;;;;;120.00;50.63;;;;;;;-3.61;100.00;102691.72;4935493;29;20559;-88
2023/01/21 02:07:59;;;;;;;114.55;49.55;;;;;;;-3.42;100.00;102721.66;4934920;29;20024;-87
2023/01/21 02:10:37;;;;;;;117.53;53.08;;;;;;;-3.23;100.00;102758.34;4935142;29;20047;-88
2023/01/21 02:13:15;;;;;;;114.90;49.83;;;;;;;-4.66;100.00;102529.22;4935410;29;20027;-88
2023/01/21 02:16:00;;;;;;;115.57;50.22;;;;;;;-3.27;100.00;102766.66;4935005;29;20035;-87
2023/01/21 02:18:54;;;;;;;110.35;45.72;;;;;;;-3.26;100.00;102769.19;4935292;29;20063;-87
2023/01/21 02:22:09;;;;;;;109.68;46.80;;;;;;;-3.29;100.00;102771.66;4934897;29;20050;-87
2023/01/21 02:25:13;;;;;;;108.45;48.15;;;;;;;-3.31;100.00;102772.44;4935209;29;20042;-86
2023/01/21 02:28:00;;;;;;;112.45;48.58;;;;;;;-3.33;100.00;102774.94;4935164;29;20036;-88
2023/01/21 02:30:28;;;;;;;107.72;47.97;;;;;;;-3.35;100.00;102770.63;4935163;29;20036;-88
2023/01/21 02:33:29;;;;;;;107.55;45.20;;;;;;;-3.34;100.00;102778.28;4934803;29;20034;-87
2023/01/21 02:36:12;;;;;;;111.43;47.05;;;;;;;-3.32;100.00;102784.22;4934607;29;20040;-85
2023/01/21 02:39:00;;;;;;;109.22;46.85;;;;;;;-3.32;100.00;102788.44;4933784;29;20023;-87
2023/01/21 02:41:44;;;;;;;105.63;44.25;;;;;;;-3.34;100.00;102797.59;4937433;29;20503;-86
2023/01/21 02:44:28;;;;;;;103.53;45.72;;;;;;;-3.38;100.00;102794.16;4938667;29;20024;-87
2023/01/21 02:47:36;;;;;;;103.65;44.70;;;;;;;-3.54;100.00;102780.28;4938577;29;20027;-89
2023/01/21 02:50:14;;;;;;;104.93;42.35;;;;;;;-3.59;100.00;102775.94;4917155;29;20039;-88
2023/01/21 02:52:40;;;;;;;101.95;44.55;;;;;;;-3.52;100.00;102785.38;4901320;29;20462;-87
2023/01/21 02:55:13;;;;;;;95.00;41.00;;;;;;;-3.48;100.00;102799.78;4916938;29;20135;-88
2023/01/21 02:57:53;;;;;;;97.70;42.65;;;;;;;-4.17;100.00;102670.88;4916961;29;20044;-89
2023/01/21 03:00:26;;;;;;;98.82;40.47;;;;;;;-4.17;100.00;102679.31;4917268;29;20036;-85
2023/01/21 03:03:27;;;;;;;95.50;39.53;;;;;;;-4.66;100.00;102596.41;4901541;29;20024;-89
2023/01/21 03:06:04;;;;;;;97.63;40.55;;;;;;;-3.36;100.00;102811.88;4860980;29;20037;-87
2023/01/21 03:08:35;;;;;;;98.07;41.58;;;;;;;-3.40;100.00;102810.94;4845385;29;20121;-88
2023/01/21 03:11:13;;;;;;;99.85;39.88;;;;;;;-3.43;100.00;102817.59;4860760;29;20034;-88
2023/01/21 03:16:57;;;;;;;94.00;37.40;;;;;;;-3.47;100.00;102821.69;4861002;29;20048;-89
2023/01/21 03:19:33;;;;;;;93.57;39.10;;;;;;;-3.48;100.00;102825.91;4845047;29;20038;-86
2023/01/21 03:22:54;;;;;;;93.20;39.70;;;;;;;-3.49;100.00;102830.91;5283647;23;20060;-87
2023/01/21 03:25:21;;;;;;;91.00;38.17;;;;;;;-4.86;100.00;102602.56;4938207;29;20040;-87
2023/01/21 03:27:59;;;;;;;95.13;40.50;;;;;;;-4.14;100.00;102726.47;4937882;29;20038;-87
2023/01/21 03:31:20;;;;;;;94.55;36.78;;;;;;;-4.57;100.00;102652.13;4936558;29;20484;-88
2023/01/21 03:33:48;;;;;;;85.68;35.85;;;;;;;-3.51;100.00;102840.13;4899500;28;20116;-86
2023/01/21 03:40:13;;;;;;;94.88;38.38;;;;;;;-3.60;100.00;102855.00;4823900;29;20095;-89
2023/01/21 03:43:32;;;;;;;92.30;38.80;;;;;;;-3.62;100.00;102856.66;4823824;29;20046;-88
2023/01/21 03:53:51;;;;;;;98.10;40.05;;;;;;;-3.70;100.00;102865.66;5470305;23;20048;-88
2023/01/21 03:56:16;;;;;;;96.95;38.35;;;;;;;-4.21;100.00;102775.03;4937481;29;20563;-87
2023/01/21 03:58:41;;;;;;;94.75;37.65;;;;;;;-3.78;100.00;102850.31;4936940;29;20060;-89
2023/01/21 04:01:07;;;;;;;101.53;41.30;;;;;;;-3.69;100.00;102860.66;4937582;29;20472;-88
2023/01/21 04:03:32;;;;;;;96.68;38.63;;;;;;;-3.87;100.00;102835.75;4937806;29;20067;-87
2023/01/21 04:05:58;;;;;;;97.07;39.65;;;;;;;-4.17;100.00;102784.41;4937099;29;20110;-88
2023/01/21 04:08:23;;;;;;;95.70;38.70;;;;;;;-3.89;100.00;102831.47;4936950;29;20047;-85
2023/01/21 04:10:54;;;;;;;101.88;37.25;;;;;;;-3.70;100.00;102876.63;4937215;29;20032;-87
2023/01/21 04:13:37;;;;;;;98.82;38.10;;;;;;;-5.16;100.00;102628.56;4920571;29;20076;-86
2023/01/21 04:16:02;;;;;;;105.32;39.92;;;;;;;-4.84;100.00;102689.97;4937092;29;20107;-88
2023/01/21 04:18:31;;;;;;;87.63;36.65;;;;;;;-4.37;100.00;102773.72;4937094;29;20110;-88
2023/01/21 04:20:59;;;;;;;94.68;40.25;;;;;;;-4.39;100.00;102778.72;4936992;29;20020;-87
2023/01/21 04:23:30;;;;;;;98.75;37.78;;;;;;;-4.85;100.00;102715.13;4936639;29;20062;-87
2023/01/21 04:26:06;;;;;;;94.15;38.10;;;;;;;-3.93;100.00;102855.78;4936440;29;20019;-87
2023/01/21 04:28:34;;;;;;;102.10;39.50;;;;;;;-4.30;100.00;102810.94;4936666;29;20035;-87
2023/01/21 05:47:03;;;;;;;102.63;39.72;;;;;;;-4.12;100.00;102949.41;4917074;29;20433;-87
2023/01/21 05:53:11;;;;;;;108.30;41.17;;;;;;;-4.15;100.00;102950.13;4940055;29;20185;-87
2023/01/21 05:58:58;;;;;;;109.47;40.35;;;;;;;-5.17;100.00;102800.63;4940577;29;20051;-86
2023/01/21 06:01:39;;;;;;;105.88;39.35;;;;;;;-5.44;100.00;102750.19;4939570;29;20028;-86
2023/01/21 06:04:05;;;;;;;101.25;40.38;;;;;;;-5.51;100.00;102759.19;4938788;29;20024;-87
2023/01/21 06:06:46;;;;;;;108.55;39.45;;;;;;;-5.06;100.00;102836.25;4938589;29;20575;-86
2023/01/21 06:09:12;;;;;;;97.07;38.85;;;;;;;-5.21;100.00;102813.94;4936904;29;20032;-87
2023/01/21 06:11:49;;;;;;;99.70;38.42;;;;;;;-5.62;100.00;102752.94;4936162;29;20436;-86
2023/01/21 06:14:15;;;;;;;97.00;36.83;;;;;;;-5.49;100.00;102780.25;4936232;29;20028;-87
2023/01/21 06:16:51;;;;;;;101.50;39.40;;;;;;;-4.26;100.00;102986.78;4939205;29;20027;-86
2023/01/21 06:19:17;;;;;;;105.38;37.10;;;;;;;-5.28;100.00;102817.03;4939405;29;20456;-88
2023/01/21 06:21:45;;;;;;;106.57;43.17;;;;;;;-5.20;100.00;102830.75;4939851;29;20093;-87
2023/01/21 06:24:10;;;;;;;98.68;38.78;;;;;;;-4.28;100.00;102987.53;4939897;29;20535;-86
2023/01/21 06:26:36;;;;;;;98.03;37.33;;;;;;;-5.36;100.00;102811.72;4939752;29;20108;-87
2023/01/21 06:29:04;;;;;;;102.30;37.45;;;;;;;-5.35;100.00;102822.66;4939324;29;20028;-87
2023/01/21 06:31:30;;;;;;;97.82;37.78;;;;;;;-5.27;100.00;102841.41;4939353;29;20445;-87
2023/01/21 06:34:04;;;;;;;96.32;36.80;;;;;;;-5.38;100.00;102842.69;4939788;29;20114;-85
2023/01/21 06:36:32;;;;;;;96.18;36.45;;;;;;;-5.40;100.00;102844.31;4938892;29;20079;-86
2023/01/21 06:38:57;;;;;;;97.85;37.85;;;;;;;-5.76;100.00;102794.38;4938794;29;20028;-86
2023/01/21 06:41:22;;;;;;;95.35;37.60;;;;;;;-5.32;100.00;102896.63;4940118;29;20392;-86
2023/01/21 06:43:48;;;;;;;91.50;38.28;;;;;;;-5.44;100.00;102886.13;4940702;29;20090;-87
2023/01/21 06:46:13;;;;;;;96.40;37.78;;;;;;;-5.58;100.00;102865.50;4939683;29;20039;-86
2023/01/21 06:48:39;;;;;;;105.78;40.28;;;;;;;-4.57;100.00;103032.81;4940514;29;20051;-86
2023/01/21 06:51:04;;;;;;;95.10;36.13;;;;;;;-5.20;100.00;102934.00;4940358;29;20036;-87
2023/01/21 06:53:30;;;;;;;100.80;36.00;;;;;;;-5.34;100.00;102903.28;4939905;29;20028;-86
2023/01/21 06:56:10;;;;;;;106.28;36.97;;;;;;;-5.39;100.00;102897.25;4939013;29;20491;-86
2023/01/21 06:58:41;;;;;;;91.47;36.45;;;;;;;-5.86;100.00;102828.44;4938783;29;20039;-87
2023/01/21 07:01:07;;;;;;;104.05;37.75;;;;;;;-5.49;100.00;102883.47;4938507;29;20480;-88
2023/01/21 07:03:44;;;;;;;105.97;37.97;;;;;;;-4.94;100.00;102981.09;4937033;29;20032;-85
2023/01/21 07:06:09;;;;;;;101.68;37.88;;;;;;;-4.95;100.00;102971.84;4936909;29;20471;-86
2023/01/21 07:08:41;;;;;;;101.22;38.97;;;;;;;-5.77;100.00;102832.94;4938501;29;20066;-85
2023/01/21 07:11:19;;;;;;;99.88;37.65;;;;;;;-6.03;100.00;102798.44;4938176;29;20039;-85
2023/01/21 07:13:44;;;;;;;108.18;38.65;;;;;;;-5.90;100.00;102823.25;4938322;29;20155;-85
2023/01/21 07:16:22;;;;;;;102.95;37.75;;;;;;;-5.86;100.00;102837.63;4938159;29;20379;-85
2023/01/21 07:18:48;;;;;;;109.97;40.42;;;;;;;-5.88;100.00;102824.16;4938130;29;20032;-85
2023/01/21 07:21:13;;;;;;;111.97;37.85;;;;;;;-5.78;100.00;102844.66;4938256;29;20028;-86
2023/01/21 07:23:54;;;;;;;122.10;40.42;;;;;;;-4.86;100.00;102988.09;4937143;29;20376;-84
2023/01/21 07:26:21;;;;;;;118.93;41.45;;;;;;;-5.45;100.00;102886.09;4937316;29;20503;-85
2023/01/21 07:31:52;;;;;;;131.02;44.22;;;;;;;-4.72;100.00;102996.97;4944657;23;20048;-84
2023/01/21 07:34:27;;;;;;;132.10;43.95;;;;;;;-4.52;100.00;103006.09;4937608;29;20040;-84
2023/01/21 07:37:01;;;;;;;133.90;46.83;;;;;;;-4.50;100.00;103012.06;4937972;29;20032;-84
2023/01/21 07:39:26;;;;;;;132.60;44.08;;;;;;;-4.07;100.00;103081.59;4944812;23;20060;-85
2023/01/21 07:41:52;;;;;;;129.63;43.78;;;;;;;-3.95;100.00;103086.16;4937502;29;20094;-83
2023/01/21 07:44:17;;;;;;;130.13;43.97;;;;;;;-4.00;100.00;103075.09;4937685;29;20032;-85
2023/01/21 07:46:45;;;;;;;143.15;46.53;;;;;;;-3.79;100.00;103109.44;4923895;29;20023;-84
2023/01/21 07:49:15;;;;;;;141.30;46.15;;;;;;;-3.72;100.00;103120.63;4941284;29;20024;-84
2023/01/21 07:51:44;;;;;;;139.37;50.03;;;;;;;-3.72;100.00;103113.03;4938165;29;20135;-85
2023/01/21 07:54:16;;;;;;;135.95;47.17;;;;;;;-3.65;100.00;103119.13;4937835;29;20032;-84
2023/01/21 07:56:57;;;;;;;137.80;48.88;;;;;;;-4.26;100.00;103019.56;4937441;29;20028;-84
2023/01/21 07:59:25;;;;;;;137.15;48.85;;;;;;;-4.05;100.00;103048.03;4943205;23;20059;-84
2023/01/21 08:01:58;;;;;;;136.65;45.30;;;;;;;-4.05;100.00;103042.97;4941921;23;20422;-84
2023/01/21 08:04:24;;;;;;;132.57;44.72;;;;;;;-3.87;100.00;103080.56;4946498;23;20393;-83
2023/01/21 08:06:51;;;;;;;133.10;47.80;;;;;;;-3.73;100.00;103093.66;4956651;29;20035;-82
2023/01/21 08:09:17;;;;;;;148.90;48.28;;;;;;;-3.65;100.00;103101.47;4956457;29;20026;-84
2023/01/21 08:11:44;;;;;;;136.00;46.60;;;;;;;-3.43;100.00;103141.75;4955175;29;20023;-85
2023/01/21 08:14:30;;;;;;;139.75;47.45;;;;;;;-4.01;100.00;103046.47;4956100;28;20027;-85
2023/01/21 08:20:25;;;;;;;134.85;46.25;;;;;;;-4.72;100.00;102921.34;4956642;28;20035;-83
2023/01/21 08:22:53;;;;;;;135.85;44.80;;;;;;;-4.03;100.00;103030.44;4956303;29;20035;-86
2023/01/21 08:25:38;;;;;;;136.98;46.47;;;;;;;-4.59;100.00;102935.25;4956162;29;20042;-87
2023/01/21 08:28:03;;;;;;;141.38;47.05;;;;;;;-4.53;100.00;102951.41;4956290;29;20049;-84
2023/01/21 08:30:29;;;;;;;152.30;50.78;;;;;;;-3.10;100.00;103186.56;4965321;28;20026;-89
2023/01/21 08:32:55;;;;;;;147.90;48.15;;;;;;;-4.27;100.00;102986.72;4975755;28;20030;-84
2023/01/21 08:35:20;;;;;;;149.50;49.85;;;;;;;-3.82;100.00;103055.50;4975807;28;20501;-89
2023/01/21 08:37:57;;;;;;;148.63;49.55;;;;;;;-3.15;100.00;103165.34;4974082;28;20062;-89
2023/01/21 08:40:25;;;;;;;129.23;44.83;;;;;;;-3.17;100.00;103160.25;4975630;28;20018;-88
2023/01/21 08:42:51;;;;;;;145.25;47.17;;;;;;;-3.09;100.00;103179.03;4973609;28;20049;-85
2023/01/21 08:45:16;;;;;;;141.68;46.28;;;;;;;-2.89;100.00;103204.91;4975040;28;20022;-84
2023/01/21 08:47:41;;;;;;;143.00;49.80;;;;;;;-4.09;100.00;103005.00;4974074;28;20383;-89
2023/01/21 08:50:09;;;;;;;149.80;48.38;;;;;;;-3.86;100.00;103043.56;4975067;28;20050;-89
2023/01/21 08:52:34;;;;;;;140.73;46.45;;;;;;;-3.69;100.00;103077.78;4975005;28;20034;-88
2023/01/21 08:55:05;;;;;;;149.60;48.13;;;;;;;-3.78;100.00;103048.06;4973478;28;20034;-87
2023/01/21 08:57:37;;;;;;;154.40;50.83;;;;;;;-3.48;100.00;103100.34;4975509;28;20038;-82
2023/01/21 09:00:02;;;;;;;149.20;50.35;;;;;;;-2.81;100.00;103200.09;4975183;28;20027;-83
2023/01/21 09:02:40;;;;;;;140.05;43.45;;;;;;;-3.64;100.00;103063.63;4974629;28;20041;-82
2023/01/21 09:05:06;;;;;;;136.52;43.92;;;;;;;-3.13;100.00;103149.44;4973322;28;20066;-83
2023/01/21 09:07:47;;;;;;;140.38;46.47;;;;;;;-2.79;100.00;103206.06;4974488;28;20046;-81
2023/01/21 09:13:08;;;;;;;138.13;39.67;;;;;;;-3.75;100.00;103034.66;4974402;28;20549;-83
2023/01/21 09:16:10;;;;;;;150.60;44.67;;;;;;;-3.40;100.00;103086.28;4974607;28;20073;-86
2023/01/21 09:22:33;;;;;;;139.00;41.80;;;;;;;-3.75;100.00;103012.81;4935919;29;20507;-84
2023/01/21 09:25:36;;;;;;;123.75;40.65;;;;;;;-2.45;100.00;103240.81;4936276;29;20028;-85
2023/01/21 09:28:02;;;;;;;131.75;41.65;;;;;;;-2.67;100.00;103198.84;5057767;23;20048;-88
2023/01/21 09:30:27;;;;;;;117.20;38.03;;;;;;;-2.63;100.00;103213.31;4935511;29;20490;-83
2023/01/21 09:32:52;;;;;;;113.07;38.80;;;;;;;-2.51;100.00;103238.09;4936020;29;20032;-84
2023/01/21 09:38:28;;;;;;;122.82;41.83;;;;;;;-2.97;100.00;103169.28;4936223;29;20046;-86
2023/01/21 09:47:48;;;;;;;130.90;42.72;;;;;;;-3.19;100.00;103139.97;4935719;29;20055;-83
2023/01/21 09:50:36;;;;;;;123.35;41.28;;;;;;;-2.34;100.00;103269.81;4934811;29;20031;-83
2023/01/21 09:57:10;;;;;;;127.40;43.83;;;;;;;-3.60;100.00;103050.31;4935563;29;20042;-81
2023/01/21 09:59:49;;;;;;;128.07;40.13;;;;;;;-2.21;100.00;103287.06;4894259;29;20127;-81
2023/01/21 10:02:45;;;;;;;125.75;39.42;;;;;;;-2.20;100.00;103291.31;4896051;29;20044;-82
2023/01/21 10:05:53;;;;;;;127.13;40.33;;;;;;;-3.51;100.00;103080.03;4895720;29;20063;-85
2023/01/21 10:08:53;;;;;;;130.73;42.83;;;;;;;-3.16;100.00;103134.16;4895239;29;20688;-89
2023/01/21 10:11:47;;;;;;;124.40;39.90;;;;;;;-2.12;100.00;103302.53;4895672;29;20079;-84
2023/01/21 10:14:46;;;;;;;122.90;41.25;;;;;;;-2.03;100.00;103307.88;4895845;29;20115;-85
2023/01/21 10:17:33;;;;;;;119.13;38.90;;;;;;;-2.00;100.00;103303.69;4896172;29;20043;-85
2023/01/21 10:20:13;;;;;;;120.07;42.03;;;;;;;-2.10;100.00;103270.53;4896660;29;20037;-86
2023/01/21 10:22:46;;;;;;;118.60;41.90;;;;;;;-2.08;100.00;103255.38;4895546;29;20056;-84
2023/01/21 10:25:27;;;;;;;115.13;40.78;;;;;;;-1.72;100.00;103303.66;4895736;29;20116;-84
2023/01/21 10:27:59;;;;;;;107.40;40.83;;;;;;;-1.69;100.00;103301.19;4895297;29;20048;-77
2023/01/21 10:30:37;;;;;;;107.85;42.15;;;;;;;-1.95;100.00;103244.78;4894891;29;20040;-84
2023/01/21 10:33:04;;;;;;;110.40;38.13;;;;;;;-1.76;100.00;103267.25;4895494;29;20052;-83
2023/01/21 10:36:04;;;;;;;110.43;39.15;;;;;;;-1.48;100.00;103299.22;4905709;28;20043;-80
2023/01/21 10:38:47;;;;;;;111.15;42.00;;;;;;;-1.43;100.00;103268.09;4935859;29;20028;-85
2023/01/21 10:41:50;;;;;;;105.65;38.22;;;;;;;-1.13;100.00;103286.63;4935415;29;20028;-87
2023/01/21 10:44:52;;;;;;;98.63;37.40;;;;;;;-1.06;100.00;103293.56;4935702;29;20501;-83
2023/01/21 10:47:39;;;;;;;103.60;39.47;;;;;;;-1.05;100.00;103291.88;4895388;29;20041;-86
2023/01/21 10:50:32;;;;;;;98.70;39.33;;;;;;;-0.89;100.00;103289.72;4895006;29;20047;-87
2023/01/21 10:53:09;;;;;;;93.97;37.45;;;;;;;-0.93;100.00;103251.59;4879391;29;20072;-88
2023/01/21 10:55:59;;;;;;;96.45;38.53;;;;;;;-0.57;100.00;103283.72;4895152;29;20029;-86
2023/01/21 10:58:59;;;;;;;88.05;35.25;;;;;;;-0.64;100.00;103275.09;4894956;29;20127;-86
2023/01/21 11:02:02;;;;;;;95.85;37.40;;;;;;;-0.62;100.00;103286.13;4895719;29;20115;-86
2023/01/21 12:03:50;;;;;;;91.05;33.78;;;;;;;-1.01;100.00;103260.69;4701161;23;20041;-86
2023/01/21 12:23:04;;;;;;;91.10;34.05;;;;;;;-0.68;100.00;103271.66;5108009;23;20401;-90
2023/01/21 12:26:30;;;;;;;90.88;36.90;;;;;;;-0.64;100.00;103268.34;4934103;23;20480;-89
2023/01/21 12:29:34;;;;;;;91.65;34.92;;;;;;;-0.60;100.00;103270.13;4940073;29;20104;-92
2023/01/21 12:38:12;;;;;;;83.10;35.50;;;;;;;-0.45;100.00;103267.06;4992807;23;20083;-89
2023/01/21 12:40:53;;;;;;;80.00;33.55;;;;;;;-0.39;100.00;103274.84;4928291;23;20484;-89
2023/01/21 12:46:19;;;;;;;77.30;34.00;;;;;;;-0.08;100.00;103271.25;5134755;23;20525;-87
2023/01/21 12:49:19;;;;;;;74.40;31.98;;;;;;;0.04;100.00;103267.25;4936852;29;20047;-89
2023/01/21 12:55:12;;;;;;;67.95;29.85;;;;;;;-1.18;100.00;103048.22;4936577;29;20070;-89
2023/01/21 13:07:40;;;;;;;64.18;29.58;;;;;;;0.49;100.00;103274.84;4935991;29;20072;-85
2023/01/21 13:10:46;;;;;;;61.72;28.23;;;;;;;0.34;100.00;103213.59;4950594;23;20110;-88
2023/01/21 13:23:07;;;;;;;53.30;26.40;;;;;;;0.50;100.00;103267.28;4935592;29;20054;-88
2023/01/21 13:26:06;;;;;;;;;;;;;;;;;;;;;
2023/01/21 13:32:15;;;;;;;58.92;28.75;;;;;;;-1.03;100.00;103046.81;4943108;23;20494;-88
2023/01/21 13:35:22;;;;;;;61.45;30.45;;;;;;;-0.10;100.00;103208.53;4895668;29;20177;-82
2023/01/21 13:41:15;;;;;;;60.03;27.48;;;;;;;0.23;100.00;103261.69;4947762;23;20082;-89
2023/01/21 13:50:50;;;;;;;;;;;;;;;;;;;;;
2023/01/21 14:01:53;;;;;;;55.50;27.27;;;;;;;-0.10;100.00;103183.13;2122420;23;20067;-82
2023/01/21 14:07:08;;;;;;;51.95;25.42;;;;;;;-0.09;100.00;103173.03;5558466;23;20063;-83
2023/01/21 14:25:40;;;;;;;44.63;22.58;;;;;;;0.69;100.00;103283.72;5788121;23;20060;-84
2023/01/21 14:31:56;;;;;;;44.78;22.75;;;;;;;-0.32;100.00;103170.03;4935550;29;20518;-87
2023/01/21 14:58:17;;;;;;;41.53;20.10;;;;;;;-0.68;100.00;103101.66;4945742;23;20063;-87
2023/01/21 15:01:40;;;;;;;38.22;20.05;;;;;;;-0.70;100.00;103107.50;4937104;29;20468;-86
2023/01/21 15:04:58;;;;;;;42.20;21.00;;;;;;;0.59;100.00;103309.81;4938137;29;20220;-85
2023/01/21 15:07:28;;;;;;;43.45;21.10;;;;;;;-0.44;100.00;103131.72;4938265;29;20027;-87
2023/01/21 15:13:50;;;;;;;42.53;20.90;;;;;;;0.20;100.00;103247.25;5055453;23;20582;-89
2023/01/21 15:16:53;;;;;;;42.15;22.25;;;;;;;-0.13;99.79;103195.78;4937316;29;20043;-87
2023/01/21 15:23:38;;;;;;;39.05;20.65;;;;;;;0.61;100.00;103325.09;4898428;29;20161;-87
2023/01/21 15:29:53;;;;;;;43.47;21.30;;;;;;;0.31;100.00;103285.56;4898650;29;20040;-88
2023/01/21 15:45:11;;;;;;;38.30;20.10;;;;;;;-0.83;100.00;103113.16;4938349;29;20090;-85
2023/01/21 16:00:11;;;;;;;39.83;20.95;;;;;;;0.24;100.00;103332.84;5959457;23;19908;-81
2023/01/21 16:10:54;;;;;;;44.88;21.13;;;;;;;-0.04;100.00;103330.56;3282071;23;20052;-84
2023/01/21 16:57:19;;;;;;;61.92;28.35;;;;;;;-0.89;100.00;103330.31;5224114;23;20079;-84
2023/01/21 16:59:48;;;;;;;67.15;29.67;;;;;;;-0.91;100.00;103331.97;4935953;29;20043;-84
2023/01/21 17:02:31;;;;;;;69.03;28.77;;;;;;;-1.15;100.00;103298.41;4936263;29;20043;-84
2023/01/21 17:05:03;;;;;;;69.70;30.40;;;;;;;-0.78;100.00;103361.06;4936099;29;20110;-82
2023/01/21 17:07:45;;;;;;;81.13;33.50;;;;;;;-1.08;100.00;103310.44;4936030;29;20353;-82
2023/01/21 17:10:13;;;;;;;81.05;33.83;;;;;;;-0.82;100.00;103355.84;4936228;29;20042;-82
2023/01/21 17:12:39;;;;;;;80.13;34.85;;;;;;;-1.12;100.00;103303.53;4934721;29;20064;-82
2023/01/21 17:15:18;;;;;;;80.03;35.67;;;;;;;-1.02;100.00;103323.25;4935905;29;20035;-82
2023/01/21 17:17:44;;;;;;;89.60;35.08;;;;;;;-0.85;100.00;103363.41;4935793;29;20086;-83
2023/01/21 17:20:37;;;;;;;84.70;36.13;;;;;;;-0.88;100.00;103371.78;4935704;29;20079;-84
2023/01/21 17:26:16;;;;;;;84.53;35.90;;;;;;;-0.88;100.00;103374.34;5431771;23;20064;-85
2023/01/21 17:29:02;;;;;;;81.15;35.17;;;;;;;-0.90;100.00;103375.94;5072657;23;20308;-82
2023/01/21 17:31:34;;;;;;;91.70;34.42;;;;;;;-1.19;100.00;103327.88;4935410;29;20545;-83
2023/01/21 17:34:02;;;;;;;86.93;35.13;;;;;;;-1.04;100.00;103346.84;4935512;29;20034;-83
2023/01/21 17:36:36;;;;;;;84.72;33.53;;;;;;;-0.96;100.00;103371.59;4935407;29;20032;-84
2023/01/21 17:39:09;;;;;;;86.22;34.13;;;;;;;-1.50;100.00;103290.75;4942553;23;20449;-85
2023/01/21 17:41:42;;;;;;;79.13;32.38;;;;;;;-1.22;100.00;103337.94;4935718;29;20031;-82
2023/01/21 17:44:19;;;;;;;78.70;33.63;;;;;;;-1.28;100.00;103334.38;4935507;29;20035;-83
2023/01/21 17:46:46;;;;;;;83.35;34.80;;;;;;;-1.11;100.00;103358.50;4935189;29;20500;-82
2023/01/21 17:49:19;;;;;;;83.10;34.10;;;;;;;-1.51;100.00;103288.16;4935401;29;20543;-83
2023/01/21 17:51:45;;;;;;;82.50;33.65;;;;;;;-1.29;100.00;103340.28;4949542;29;20059;-83
2023/01/21 17:57:03;;;;;;;73.95;31.75;;;;;;;-1.02;100.00;103404.38;4951411;23;20055;-82
2023/01/21 17:59:40;;;;;;;85.97;32.58;;;;;;;-1.19;100.00;103380.25;4949713;23;20052;-83
2023/01/21 18:02:11;;;;;;;82.72;34.08;;;;;;;-1.22;100.00;103375.13;4933812;29;20051;-84
2023/01/21 18:04:36;;;;;;;82.20;33.30;;;;;;;-1.04;100.00;103405.19;4934119;29;20039;-81
2023/01/21 18:07:14;;;;;;;84.60;31.85;;;;;;;-1.43;100.00;103337.38;4933803;29;20024;-83
2023/01/21 18:09:40;;;;;;;79.68;33.60;;;;;;;-1.12;100.00;103388.91;4935283;29;20020;-83
2023/01/21 18:12:09;;;;;;;82.15;33.17;;;;;;;-1.11;100.00;103394.00;4937458;29;20042;-84
2023/01/21 18:14:37;;;;;;;78.30;31.90;;;;;;;-1.32;100.00;103361.34;4937920;29;20074;-85
2023/01/21 18:17:23;;;;;;;79.03;32.50;;;;;;;-1.62;100.00;103319.97;4938783;29;20087;-84
2023/01/21 18:19:59;;;;;;;78.47;33.00;;;;;;;-1.18;100.00;103400.59;4939044;29;20023;-84
2023/01/21 18:22:46;;;;;;;78.72;32.55;;;;;;;-1.21;100.00;103403.03;4946001;23;20039;-85
2023/01/21 18:28:26;;;;;;;73.20;30.90;;;;;;;-1.33;100.00;103412.00;4943714;23;20110;-86
2023/01/21 18:31:00;;;;;;;79.72;31.65;;;;;;;-1.90;100.00;103318.34;4943451;23;20060;-84
2023/01/21 18:33:25;;;;;;;75.82;31.33;;;;;;;-2.20;100.00;103271.06;4938818;29;20039;-83
2023/01/21 18:36:03;;;;;;;72.65;31.40;;;;;;;-1.44;100.00;103401.56;4945853;23;20060;-84